sensor_id;sensor_type;location;lat;lon;timestamp;P1;durP1;ratioP1;P2;durP2;ratioP2
69588;SDS011;56792;50.644;17.984;2023-09-19T00:01:08;18.80;;;14.50;;
69588;SDS011;56792;50.644;17.984;2023-09-19T00:03:39;19.80;;;14.90;;
69588;SDS011;56792;50.644;17.984;2023-09-19T00:06:09;18.50;;;13.50;;
69588;SDS011;56792;50.644;17.984;2023-09-19T00:08:37;19.30;;;13.60;;
69588;SDS011;56792;50.644;17.984;2023-09-19T00:11:06;21.90;;;14.60;;
69588;SDS011;56792;50.644;17.984;2023-09-19T00:13:35;19.20;;;13.50;;
69588;SDS011;56792;50.644;17.984;2023-09-19T00:16:08;17.00;;;12.90;;
69588;SDS011;56792;50.644;17.984;2023-09-19T00:18:38;16.60;;;13.60;;
69588;SDS011;56792;50.644;17.984;2023-09-19T00:21:06;17.90;;;14.10;;
69588;SDS011;56792;50.644;17.984;2023-09-19T00:23:34;20.60;;;13.20;;
69588;SDS011;56792;50.644;17.984;2023-09-19T00:26:03;20.30;;;13.60;;
69588;SDS011;56792;50.644;17.984;2023-09-19T00:28:31;16.90;;;13.40;;
69588;SDS011;56792;50.644;17.984;2023-09-19T00:31:00;17.60;;;13.30;;
69588;SDS011;56792;50.644;17.984;2023-09-19T00:33:28;19.00;;;13.80;;
69588;SDS011;56792;50.644;17.984;2023-09-19T00:35:57;19.70;;;13.10;;
69588;SDS011;56792;50.644;17.984;2023-09-19T00:38:26;17.80;;;13.50;;
69588;SDS011;56792;50.644;17.984;2023-09-19T00:40:55;20.70;;;14.20;;
69588;SDS011;56792;50.644;17.984;2023-09-19T00:43:24;20.20;;;13.70;;
69588;SDS011;56792;50.644;17.984;2023-09-19T00:45:55;18.20;;;14.00;;
69588;SDS011;56792;50.644;17.984;2023-09-19T00:48:24;18.10;;;13.30;;
69588;SDS011;56792;50.644;17.984;2023-09-19T00:50:55;20.50;;;13.30;;
69588;SDS011;56792;50.644;17.984;2023-09-19T00:53:26;19.10;;;13.80;;
69588;SDS011;56792;50.644;17.984;2023-09-19T00:55:56;18.80;;;13.40;;
69588;SDS011;56792;50.644;17.984;2023-09-19T00:58:24;18.60;;;14.10;;
69588;SDS011;56792;50.644;17.984;2023-09-19T01:00:59;18.50;;;13.20;;
69588;SDS011;56792;50.644;17.984;2023-09-19T01:03:28;19.20;;;14.40;;
69588;SDS011;56792;50.644;17.984;2023-09-19T01:05:56;19.60;;;13.80;;
69588;SDS011;56792;50.644;17.984;2023-09-19T01:08:27;19.30;;;14.20;;
69588;SDS011;56792;50.644;17.984;2023-09-19T01:11:08;19.40;;;14.00;;
69588;SDS011;56792;50.644;17.984;2023-09-19T01:13:58;21.60;;;14.70;;
69588;SDS011;56792;50.644;17.984;2023-09-19T01:16:36;19.30;;;14.60;;
69588;SDS011;56792;50.644;17.984;2023-09-19T01:19:32;20.00;;;14.00;;
69588;SDS011;56792;50.644;17.984;2023-09-19T01:22:25;19.20;;;13.60;;
69588;SDS011;56792;50.644;17.984;2023-09-19T01:25:31;19.20;;;14.40;;
69588;SDS011;56792;50.644;17.984;2023-09-19T01:28:23;20.40;;;13.90;;
69588;SDS011;56792;50.644;17.984;2023-09-19T01:31:04;24.20;;;14.10;;
69588;SDS011;56792;50.644;17.984;2023-09-19T01:33:59;21.90;;;15.00;;
69588;SDS011;56792;50.644;17.984;2023-09-19T01:36:32;22.70;;;15.00;;
69588;SDS011;56792;50.644;17.984;2023-09-19T01:39:05;23.40;;;15.20;;
69588;SDS011;56792;50.644;17.984;2023-09-19T01:41:54;22.00;;;15.90;;
69588;SDS011;56792;50.644;17.984;2023-09-19T01:44:40;20.60;;;15.10;;
69588;SDS011;56792;50.644;17.984;2023-09-19T01:47:23;21.00;;;15.20;;
69588;SDS011;56792;50.644;17.984;2023-09-19T01:50:06;19.60;;;14.80;;
69588;SDS011;56792;50.644;17.984;2023-09-19T01:52:45;21.40;;;14.90;;
69588;SDS011;56792;50.644;17.984;2023-09-19T01:55:17;20.80;;;14.60;;
69588;SDS011;56792;50.644;17.984;2023-09-19T01:57:54;20.60;;;15.30;;
69588;SDS011;56792;50.644;17.984;2023-09-19T02:00:29;17.50;;;14.10;;
69588;SDS011;56792;50.644;17.984;2023-09-19T02:03:03;16.90;;;13.50;;
69588;SDS011;56792;50.644;17.984;2023-09-19T02:05:32;18.60;;;14.30;;
69588;SDS011;56792;50.644;17.984;2023-09-19T02:08:01;17.50;;;14.10;;
69588;SDS011;56792;50.644;17.984;2023-09-19T02:10:29;21.40;;;15.20;;
69588;SDS011;56792;50.644;17.984;2023-09-19T02:12:59;17.60;;;14.70;;
69588;SDS011;56792;50.644;17.984;2023-09-19T02:15:27;18.40;;;13.90;;
69588;SDS011;56792;50.644;17.984;2023-09-19T02:17:59;18.60;;;14.50;;
69588;SDS011;56792;50.644;17.984;2023-09-19T02:20:29;19.60;;;14.40;;
69588;SDS011;56792;50.644;17.984;2023-09-19T02:22:59;18.80;;;14.10;;
69588;SDS011;56792;50.644;17.984;2023-09-19T02:25:29;18.00;;;14.00;;
69588;SDS011;56792;50.644;17.984;2023-09-19T02:27:58;17.20;;;13.80;;
69588;SDS011;56792;50.644;17.984;2023-09-19T02:30:30;17.50;;;13.20;;
69588;SDS011;56792;50.644;17.984;2023-09-19T02:32:58;17.20;;;14.00;;
69588;SDS011;56792;50.644;17.984;2023-09-19T02:35:29;18.70;;;13.40;;
69588;SDS011;56792;50.644;17.984;2023-09-19T02:38:02;19.70;;;13.50;;
69588;SDS011;56792;50.644;17.984;2023-09-19T02:40:33;17.00;;;12.10;;
69588;SDS011;56792;50.644;17.984;2023-09-19T02:43:04;16.40;;;13.00;;
69588;SDS011;56792;50.644;17.984;2023-09-19T02:45:34;15.00;;;11.60;;
69588;SDS011;56792;50.644;17.984;2023-09-19T02:48:03;15.00;;;11.10;;
69588;SDS011;56792;50.644;17.984;2023-09-19T02:50:35;15.60;;;11.10;;
69588;SDS011;56792;50.644;17.984;2023-09-19T02:53:04;14.50;;;10.90;;
69588;SDS011;56792;50.644;17.984;2023-09-19T02:55:34;14.50;;;10.10;;
69588;SDS011;56792;50.644;17.984;2023-09-19T02:58:06;11.60;;;8.50;;
69588;SDS011;56792;50.644;17.984;2023-09-19T03:00:38;12.50;;;8.50;;
69588;SDS011;56792;50.644;17.984;2023-09-19T03:03:09;11.80;;;7.50;;
69588;SDS011;56792;50.644;17.984;2023-09-19T03:05:38;12.00;;;7.60;;
69588;SDS011;56792;50.644;17.984;2023-09-19T03:08:07;12.70;;;7.70;;
69588;SDS011;56792;50.644;17.984;2023-09-19T03:10:36;11.00;;;7.40;;
69588;SDS011;56792;50.644;17.984;2023-09-19T03:13:05;10.40;;;7.20;;
69588;SDS011;56792;50.644;17.984;2023-09-19T03:15:36;10.30;;;7.00;;
69588;SDS011;56792;50.644;17.984;2023-09-19T03:18:08;9.10;;;5.90;;
69588;SDS011;56792;50.644;17.984;2023-09-19T03:20:36;8.50;;;6.10;;
69588;SDS011;56792;50.644;17.984;2023-09-19T03:23:06;7.00;;;5.20;;
69588;SDS011;56792;50.644;17.984;2023-09-19T03:25:36;8.70;;;5.40;;
69588;SDS011;56792;50.644;17.984;2023-09-19T03:28:05;8.60;;;5.30;;
69588;SDS011;56792;50.644;17.984;2023-09-19T03:30:35;8.80;;;4.90;;
69588;SDS011;56792;50.644;17.984;2023-09-19T03:33:05;7.10;;;5.00;;
69588;SDS011;56792;50.644;17.984;2023-09-19T03:35:34;8.60;;;4.60;;
69588;SDS011;56792;50.644;17.984;2023-09-19T03:38:04;8.00;;;4.70;;
69588;SDS011;56792;50.644;17.984;2023-09-19T03:40:33;8.10;;;4.90;;
69588;SDS011;56792;50.644;17.984;2023-09-19T03:43:04;7.50;;;4.70;;
69588;SDS011;56792;50.644;17.984;2023-09-19T03:45:34;6.60;;;4.90;;
69588;SDS011;56792;50.644;17.984;2023-09-19T03:48:06;6.40;;;3.80;;
69588;SDS011;56792;50.644;17.984;2023-09-19T03:50:36;6.10;;;3.70;;
69588;SDS011;56792;50.644;17.984;2023-09-19T03:53:05;7.10;;;3.20;;
69588;SDS011;56792;50.644;17.984;2023-09-19T03:55:34;4.90;;;3.10;;
69588;SDS011;56792;50.644;17.984;2023-09-19T03:58:03;6.00;;;3.00;;
69588;SDS011;56792;50.644;17.984;2023-09-19T04:00:31;6.00;;;3.30;;
69588;SDS011;56792;50.644;17.984;2023-09-19T04:03:01;6.80;;;3.10;;
69588;SDS011;56792;50.644;17.984;2023-09-19T04:05:32;5.10;;;3.10;;
69588;SDS011;56792;50.644;17.984;2023-09-19T04:08:01;6.70;;;3.20;;
69588;SDS011;56792;50.644;17.984;2023-09-19T04:10:29;5.00;;;2.50;;
69588;SDS011;56792;50.644;17.984;2023-09-19T04:12:58;5.30;;;2.90;;
69588;SDS011;56792;50.644;17.984;2023-09-19T04:15:26;5.30;;;2.70;;
69588;SDS011;56792;50.644;17.984;2023-09-19T04:17:55;5.60;;;2.90;;
69588;SDS011;56792;50.644;17.984;2023-09-19T04:20:23;4.20;;;2.50;;
69588;SDS011;56792;50.644;17.984;2023-09-19T04:22:52;4.80;;;2.60;;
69588;SDS011;56792;50.644;17.984;2023-09-19T04:25:21;4.20;;;2.10;;
69588;SDS011;56792;50.644;17.984;2023-09-19T04:27:49;5.90;;;2.50;;
69588;SDS011;56792;50.644;17.984;2023-09-19T04:30:18;5.30;;;2.30;;
69588;SDS011;56792;50.644;17.984;2023-09-19T04:32:48;4.30;;;2.30;;
69588;SDS011;56792;50.644;17.984;2023-09-19T04:35:17;3.50;;;2.10;;
69588;SDS011;56792;50.644;17.984;2023-09-19T04:37:46;8.40;;;2.70;;
69588;SDS011;56792;50.644;17.984;2023-09-19T04:40:15;4.70;;;2.50;;
69588;SDS011;56792;50.644;17.984;2023-09-19T04:42:44;4.40;;;2.70;;
69588;SDS011;56792;50.644;17.984;2023-09-19T04:45:20;4.10;;;2.30;;
69588;SDS011;56792;50.644;17.984;2023-09-19T04:47:48;5.40;;;2.30;;
69588;SDS011;56792;50.644;17.984;2023-09-19T04:50:17;6.60;;;2.60;;
69588;SDS011;56792;50.644;17.984;2023-09-19T04:52:45;4.80;;;3.00;;
69588;SDS011;56792;50.644;17.984;2023-09-19T04:55:18;7.50;;;2.60;;
69588;SDS011;56792;50.644;17.984;2023-09-19T04:57:47;5.50;;;2.40;;
69588;SDS011;56792;50.644;17.984;2023-09-19T05:00:17;5.40;;;2.60;;
69588;SDS011;56792;50.644;17.984;2023-09-19T05:02:50;5.70;;;2.80;;
69588;SDS011;56792;50.644;17.984;2023-09-19T05:05:19;6.70;;;2.60;;
69588;SDS011;56792;50.644;17.984;2023-09-19T05:07:49;5.30;;;2.70;;
69588;SDS011;56792;50.644;17.984;2023-09-19T05:10:21;5.40;;;2.30;;
69588;SDS011;56792;50.644;17.984;2023-09-19T05:12:49;4.50;;;2.40;;
69588;SDS011;56792;50.644;17.984;2023-09-19T05:15:21;6.70;;;2.30;;
69588;SDS011;56792;50.644;17.984;2023-09-19T05:17:50;5.80;;;2.70;;
69588;SDS011;56792;50.644;17.984;2023-09-19T05:20:21;5.60;;;2.30;;
69588;SDS011;56792;50.644;17.984;2023-09-19T05:23:00;7.50;;;2.60;;
69588;SDS011;56792;50.644;17.984;2023-09-19T05:25:30;3.80;;;2.30;;
69588;SDS011;56792;50.644;17.984;2023-09-19T05:28:00;5.40;;;2.60;;
69588;SDS011;56792;50.644;17.984;2023-09-19T05:30:30;5.20;;;2.60;;
69588;SDS011;56792;50.644;17.984;2023-09-19T05:32:59;5.30;;;2.60;;
69588;SDS011;56792;50.644;17.984;2023-09-19T05:35:27;5.10;;;2.30;;
69588;SDS011;56792;50.644;17.984;2023-09-19T05:37:55;4.00;;;2.20;;
69588;SDS011;56792;50.644;17.984;2023-09-19T05:40:25;5.70;;;2.60;;
69588;SDS011;56792;50.644;17.984;2023-09-19T05:42:54;6.20;;;3.20;;
69588;SDS011;56792;50.644;17.984;2023-09-19T05:45:22;6.20;;;2.60;;
69588;SDS011;56792;50.644;17.984;2023-09-19T05:47:51;11.00;;;2.40;;
69588;SDS011;56792;50.644;17.984;2023-09-19T05:50:22;8.80;;;2.50;;
69588;SDS011;56792;50.644;17.984;2023-09-19T05:52:55;7.10;;;2.30;;
69588;SDS011;56792;50.644;17.984;2023-09-19T05:55:23;4.30;;;2.30;;
69588;SDS011;56792;50.644;17.984;2023-09-19T05:57:52;4.60;;;2.30;;
69588;SDS011;56792;50.644;17.984;2023-09-19T06:00:21;8.00;;;2.40;;
69588;SDS011;56792;50.644;17.984;2023-09-19T06:02:51;8.50;;;3.00;;
69588;SDS011;56792;50.644;17.984;2023-09-19T06:05:21;4.50;;;2.30;;
69588;SDS011;56792;50.644;17.984;2023-09-19T06:07:50;5.10;;;2.10;;
69588;SDS011;56792;50.644;17.984;2023-09-19T06:10:19;5.50;;;2.80;;
69588;SDS011;56792;50.644;17.984;2023-09-19T06:12:47;7.60;;;2.90;;
69588;SDS011;56792;50.644;17.984;2023-09-19T06:15:16;4.70;;;2.00;;
69588;SDS011;56792;50.644;17.984;2023-09-19T06:17:48;7.50;;;2.90;;
69588;SDS011;56792;50.644;17.984;2023-09-19T06:20:18;5.50;;;2.50;;
69588;SDS011;56792;50.644;17.984;2023-09-19T06:22:46;4.20;;;2.30;;
69588;SDS011;56792;50.644;17.984;2023-09-19T06:25:16;5.30;;;2.20;;
69588;SDS011;56792;50.644;17.984;2023-09-19T06:27:46;6.60;;;2.70;;
69588;SDS011;56792;50.644;17.984;2023-09-19T06:30:15;4.50;;;2.30;;
69588;SDS011;56792;50.644;17.984;2023-09-19T06:32:44;5.90;;;2.70;;
69588;SDS011;56792;50.644;17.984;2023-09-19T06:35:14;6.50;;;2.70;;
69588;SDS011;56792;50.644;17.984;2023-09-19T06:37:43;5.60;;;2.50;;
69588;SDS011;56792;50.644;17.984;2023-09-19T06:40:12;5.20;;;2.40;;
69588;SDS011;56792;50.644;17.984;2023-09-19T06:42:42;4.30;;;2.20;;
69588;SDS011;56792;50.644;17.984;2023-09-19T06:45:12;4.30;;;2.40;;
69588;SDS011;56792;50.644;17.984;2023-09-19T06:47:44;4.30;;;2.30;;
69588;SDS011;56792;50.644;17.984;2023-09-19T06:50:16;76.30;;;16.90;;
69588;SDS011;56792;50.644;17.984;2023-09-19T06:52:47;16.00;;;3.40;;
69588;SDS011;56792;50.644;17.984;2023-09-19T06:55:17;8.10;;;2.40;;
69588;SDS011;56792;50.644;17.984;2023-09-19T06:57:46;5.60;;;2.60;;
69588;SDS011;56792;50.644;17.984;2023-09-19T07:00:16;8.30;;;2.90;;
69588;SDS011;56792;50.644;17.984;2023-09-19T07:02:45;7.00;;;2.90;;
69588;SDS011;56792;50.644;17.984;2023-09-19T07:05:23;6.10;;;2.70;;
69588;SDS011;56792;50.644;17.984;2023-09-19T07:07:52;4.60;;;2.60;;
69588;SDS011;56792;50.644;17.984;2023-09-19T07:10:21;6.00;;;2.90;;
69588;SDS011;56792;50.644;17.984;2023-09-19T07:12:55;5.40;;;3.10;;
69588;SDS011;56792;50.644;17.984;2023-09-19T07:15:25;5.50;;;2.50;;
69588;SDS011;56792;50.644;17.984;2023-09-19T07:17:54;4.80;;;2.70;;
69588;SDS011;56792;50.644;17.984;2023-09-19T07:20:24;4.80;;;2.90;;
69588;SDS011;56792;50.644;17.984;2023-09-19T07:22:53;5.00;;;3.00;;
69588;SDS011;56792;50.644;17.984;2023-09-19T07:25:22;5.10;;;3.00;;
69588;SDS011;56792;50.644;17.984;2023-09-19T07:27:50;5.40;;;2.90;;
69588;SDS011;56792;50.644;17.984;2023-09-19T07:30:19;5.80;;;3.00;;
69588;SDS011;56792;50.644;17.984;2023-09-19T07:32:47;6.70;;;3.40;;
69588;SDS011;56792;50.644;17.984;2023-09-19T07:35:16;4.60;;;2.90;;
69588;SDS011;56792;50.644;17.984;2023-09-19T07:37:46;5.20;;;2.80;;
69588;SDS011;56792;50.644;17.984;2023-09-19T07:40:16;6.30;;;2.90;;
69588;SDS011;56792;50.644;17.984;2023-09-19T07:42:45;5.40;;;3.20;;
69588;SDS011;56792;50.644;17.984;2023-09-19T07:45:14;5.60;;;3.10;;
69588;SDS011;56792;50.644;17.984;2023-09-19T07:47:45;5.50;;;3.50;;
69588;SDS011;56792;50.644;17.984;2023-09-19T07:50:14;4.70;;;2.70;;
69588;SDS011;56792;50.644;17.984;2023-09-19T07:52:43;5.50;;;3.10;;
69588;SDS011;56792;50.644;17.984;2023-09-19T07:55:11;6.50;;;3.10;;
69588;SDS011;56792;50.644;17.984;2023-09-19T07:57:44;5.00;;;2.80;;
69588;SDS011;56792;50.644;17.984;2023-09-19T08:00:14;6.10;;;3.10;;
69588;SDS011;56792;50.644;17.984;2023-09-19T08:02:43;6.10;;;3.50;;
69588;SDS011;56792;50.644;17.984;2023-09-19T08:05:13;7.80;;;2.90;;
69588;SDS011;56792;50.644;17.984;2023-09-19T08:07:44;5.40;;;3.60;;
69588;SDS011;56792;50.644;17.984;2023-09-19T08:10:15;5.70;;;3.30;;
69588;SDS011;56792;50.644;17.984;2023-09-19T08:12:47;5.00;;;3.60;;
69588;SDS011;56792;50.644;17.984;2023-09-19T08:15:17;6.60;;;3.30;;
69588;SDS011;56792;50.644;17.984;2023-09-19T08:17:47;6.60;;;3.70;;
69588;SDS011;56792;50.644;17.984;2023-09-19T08:20:16;6.70;;;3.40;;
69588;SDS011;56792;50.644;17.984;2023-09-19T08:22:48;5.50;;;3.30;;
69588;SDS011;56792;50.644;17.984;2023-09-19T08:25:19;5.30;;;3.60;;
69588;SDS011;56792;50.644;17.984;2023-09-19T08:27:49;8.00;;;3.60;;
69588;SDS011;56792;50.644;17.984;2023-09-19T08:30:19;8.10;;;3.60;;
69588;SDS011;56792;50.644;17.984;2023-09-19T08:32:50;6.00;;;3.30;;
69588;SDS011;56792;50.644;17.984;2023-09-19T08:35:19;8.40;;;3.80;;
69588;SDS011;56792;50.644;17.984;2023-09-19T08:37:47;6.40;;;3.20;;
69588;SDS011;56792;50.644;17.984;2023-09-19T08:40:16;6.60;;;3.80;;
69588;SDS011;56792;50.644;17.984;2023-09-19T08:42:51;5.20;;;3.30;;
69588;SDS011;56792;50.644;17.984;2023-09-19T08:45:21;8.70;;;3.50;;
69588;SDS011;56792;50.644;17.984;2023-09-19T08:48:08;5.40;;;3.40;;
69588;SDS011;56792;50.644;17.984;2023-09-19T08:50:48;5.80;;;3.30;;
69588;SDS011;56792;50.644;17.984;2023-09-19T08:53:25;5.30;;;3.40;;
69588;SDS011;56792;50.644;17.984;2023-09-19T08:56:00;7.00;;;3.30;;
69588;SDS011;56792;50.644;17.984;2023-09-19T08:58:34;5.90;;;3.80;;
69588;SDS011;56792;50.644;17.984;2023-09-19T09:01:11;5.20;;;3.90;;
69588;SDS011;56792;50.644;17.984;2023-09-19T09:03:43;8.10;;;4.20;;
69588;SDS011;56792;50.644;17.984;2023-09-19T09:06:15;8.70;;;4.00;;
69588;SDS011;56792;50.644;17.984;2023-09-19T09:08:45;4.40;;;3.40;;
69588;SDS011;56792;50.644;17.984;2023-09-19T09:11:15;8.10;;;4.00;;
69588;SDS011;56792;50.644;17.984;2023-09-19T09:13:44;5.10;;;3.50;;
69588;SDS011;56792;50.644;17.984;2023-09-19T09:16:13;5.50;;;3.50;;
69588;SDS011;56792;50.644;17.984;2023-09-19T09:18:44;7.30;;;3.60;;
69588;SDS011;56792;50.644;17.984;2023-09-19T09:21:13;4.70;;;3.40;;
69588;SDS011;56792;50.644;17.984;2023-09-19T09:23:42;6.20;;;4.10;;
69588;SDS011;56792;50.644;17.984;2023-09-19T09:26:11;5.10;;;3.10;;
69588;SDS011;56792;50.644;17.984;2023-09-19T09:28:46;5.90;;;4.00;;
69588;SDS011;56792;50.644;17.984;2023-09-19T09:31:24;6.70;;;3.70;;
69588;SDS011;56792;50.644;17.984;2023-09-19T09:33:56;4.70;;;3.50;;
69588;SDS011;56792;50.644;17.984;2023-09-19T09:36:39;5.30;;;3.60;;
69588;SDS011;56792;50.644;17.984;2023-09-19T09:39:08;5.50;;;3.90;;
69588;SDS011;56792;50.644;17.984;2023-09-19T09:41:44;5.80;;;3.40;;
69588;SDS011;56792;50.644;17.984;2023-09-19T09:44:14;6.40;;;3.80;;
69588;SDS011;56792;50.644;17.984;2023-09-19T09:46:45;4.70;;;3.50;;
69588;SDS011;56792;50.644;17.984;2023-09-19T09:49:27;6.40;;;3.90;;
69588;SDS011;56792;50.644;17.984;2023-09-19T09:52:02;5.00;;;3.50;;
69588;SDS011;56792;50.644;17.984;2023-09-19T09:54:35;7.60;;;3.90;;
69588;SDS011;56792;50.644;17.984;2023-09-19T09:57:05;5.90;;;3.70;;
69588;SDS011;56792;50.644;17.984;2023-09-19T09:59:48;5.40;;;4.00;;
69588;SDS011;56792;50.644;17.984;2023-09-19T10:02:20;5.30;;;3.70;;
69588;SDS011;56792;50.644;17.984;2023-09-19T10:04:56;5.30;;;3.60;;
69588;SDS011;56792;50.644;17.984;2023-09-19T10:07:41;6.20;;;4.40;;
69588;SDS011;56792;50.644;17.984;2023-09-19T10:10:30;7.90;;;3.80;;
69588;SDS011;56792;50.644;17.984;2023-09-19T10:13:11;7.50;;;3.50;;
69588;SDS011;56792;50.644;17.984;2023-09-19T10:15:43;6.40;;;3.90;;
69588;SDS011;56792;50.644;17.984;2023-09-19T10:18:20;5.80;;;3.60;;
69588;SDS011;56792;50.644;17.984;2023-09-19T10:20:50;5.30;;;3.60;;
69588;SDS011;56792;50.644;17.984;2023-09-19T10:23:19;5.00;;;3.30;;
69588;SDS011;56792;50.644;17.984;2023-09-19T10:25:50;5.00;;;3.10;;
69588;SDS011;56792;50.644;17.984;2023-09-19T10:28:20;5.20;;;3.00;;
69588;SDS011;56792;50.644;17.984;2023-09-19T10:30:49;5.10;;;2.90;;
69588;SDS011;56792;50.644;17.984;2023-09-19T10:33:20;5.50;;;2.70;;
69588;SDS011;56792;50.644;17.984;2023-09-19T10:35:53;5.60;;;2.50;;
69588;SDS011;56792;50.644;17.984;2023-09-19T10:38:25;5.20;;;2.60;;
69588;SDS011;56792;50.644;17.984;2023-09-19T10:40:56;4.60;;;2.50;;
69588;SDS011;56792;50.644;17.984;2023-09-19T10:43:30;8.10;;;2.90;;
69588;SDS011;56792;50.644;17.984;2023-09-19T10:46:03;5.90;;;3.00;;
69588;SDS011;56792;50.644;17.984;2023-09-19T10:48:37;3.60;;;2.40;;
69588;SDS011;56792;50.644;17.984;2023-09-19T10:51:08;4.00;;;2.40;;
69588;SDS011;56792;50.644;17.984;2023-09-19T10:53:50;4.50;;;2.40;;
69588;SDS011;56792;50.644;17.984;2023-09-19T10:56:23;4.80;;;2.70;;
69588;SDS011;56792;50.644;17.984;2023-09-19T10:59:08;4.70;;;3.10;;
69588;SDS011;56792;50.644;17.984;2023-09-19T11:01:43;3.90;;;2.50;;
69588;SDS011;56792;50.644;17.984;2023-09-19T11:04:28;3.70;;;2.50;;
69588;SDS011;56792;50.644;17.984;2023-09-19T11:07:03;4.10;;;2.60;;
69588;SDS011;56792;50.644;17.984;2023-09-19T11:09:49;4.20;;;2.70;;
69588;SDS011;56792;50.644;17.984;2023-09-19T11:12:50;5.20;;;3.10;;
69588;SDS011;56792;50.644;17.984;2023-09-19T11:18:54;4.50;;;3.00;;
69588;SDS011;56792;50.644;17.984;2023-09-19T11:24:30;6.10;;;3.60;;
69588;SDS011;56792;50.644;17.984;2023-09-19T11:27:13;4.90;;;3.40;;
69588;SDS011;56792;50.644;17.984;2023-09-19T11:29:44;3.90;;;2.30;;
69588;SDS011;56792;50.644;17.984;2023-09-19T11:32:14;4.70;;;3.60;;
69588;SDS011;56792;50.644;17.984;2023-09-19T11:34:49;4.30;;;2.50;;
69588;SDS011;56792;50.644;17.984;2023-09-19T11:40:33;6.80;;;2.30;;
69588;SDS011;56792;50.644;17.984;2023-09-19T11:43:31;5.70;;;2.60;;
69588;SDS011;56792;50.644;17.984;2023-09-19T11:46:08;4.40;;;2.70;;
69588;SDS011;56792;50.644;17.984;2023-09-19T11:48:39;3.80;;;2.40;;
69588;SDS011;56792;50.644;17.984;2023-09-19T11:51:16;5.50;;;2.70;;
69588;SDS011;56792;50.644;17.984;2023-09-19T11:54:00;4.80;;;2.70;;
69588;SDS011;56792;50.644;17.984;2023-09-19T11:56:30;5.70;;;3.50;;
69588;SDS011;56792;50.644;17.984;2023-09-19T11:59:08;5.40;;;2.90;;
69588;SDS011;56792;50.644;17.984;2023-09-19T12:01:41;4.00;;;3.10;;
69588;SDS011;56792;50.644;17.984;2023-09-19T12:04:18;4.60;;;2.70;;
69588;SDS011;56792;50.644;17.984;2023-09-19T12:07:00;3.80;;;3.00;;
69588;SDS011;56792;50.644;17.984;2023-09-19T12:09:29;3.60;;;2.80;;
69588;SDS011;56792;50.644;17.984;2023-09-19T12:11:57;5.00;;;2.90;;
69588;SDS011;56792;50.644;17.984;2023-09-19T12:14:27;4.40;;;2.20;;
69588;SDS011;56792;50.644;17.984;2023-09-19T12:16:56;4.90;;;2.80;;
69588;SDS011;56792;50.644;17.984;2023-09-19T12:19:27;3.70;;;2.40;;
69588;SDS011;56792;50.644;17.984;2023-09-19T12:21:56;3.10;;;2.30;;
69588;SDS011;56792;50.644;17.984;2023-09-19T12:24:26;3.90;;;2.30;;
69588;SDS011;56792;50.644;17.984;2023-09-19T12:27:01;5.10;;;3.00;;
69588;SDS011;56792;50.644;17.984;2023-09-19T12:29:43;5.20;;;2.50;;
69588;SDS011;56792;50.644;17.984;2023-09-19T12:32:12;3.90;;;2.70;;
69588;SDS011;56792;50.644;17.984;2023-09-19T12:34:51;4.10;;;2.80;;
69588;SDS011;56792;50.644;17.984;2023-09-19T12:37:21;4.20;;;2.50;;
69588;SDS011;56792;50.644;17.984;2023-09-19T12:39:51;4.00;;;2.20;;
69588;SDS011;56792;50.644;17.984;2023-09-19T12:42:21;3.70;;;2.10;;
69588;SDS011;56792;50.644;17.984;2023-09-19T12:44:51;4.00;;;2.30;;
69588;SDS011;56792;50.644;17.984;2023-09-19T12:47:23;5.40;;;2.20;;
69588;SDS011;56792;50.644;17.984;2023-09-19T12:50:09;3.10;;;1.60;;
69588;SDS011;56792;50.644;17.984;2023-09-19T12:52:45;3.80;;;1.90;;
69588;SDS011;56792;50.644;17.984;2023-09-19T12:55:23;3.50;;;2.10;;
69588;SDS011;56792;50.644;17.984;2023-09-19T12:58:03;4.20;;;2.30;;
69588;SDS011;56792;50.644;17.984;2023-09-19T13:00:38;4.20;;;3.30;;
69588;SDS011;56792;50.644;17.984;2023-09-19T13:03:13;4.30;;;2.10;;
69588;SDS011;56792;50.644;17.984;2023-09-19T13:06:03;5.70;;;2.00;;
69588;SDS011;56792;50.644;17.984;2023-09-19T13:08:32;3.60;;;2.00;;
69588;SDS011;56792;50.644;17.984;2023-09-19T13:11:06;3.50;;;2.10;;
69588;SDS011;56792;50.644;17.984;2023-09-19T13:13:40;4.90;;;2.60;;
69588;SDS011;56792;50.644;17.984;2023-09-19T13:16:11;5.00;;;2.40;;
69588;SDS011;56792;50.644;17.984;2023-09-19T13:18:45;4.10;;;2.30;;
69588;SDS011;56792;50.644;17.984;2023-09-19T13:21:27;5.70;;;2.30;;
69588;SDS011;56792;50.644;17.984;2023-09-19T13:24:20;4.20;;;2.20;;
69588;SDS011;56792;50.644;17.984;2023-09-19T13:26:52;5.90;;;2.70;;
69588;SDS011;56792;50.644;17.984;2023-09-19T13:29:21;7.10;;;3.30;;
69588;SDS011;56792;50.644;17.984;2023-09-19T13:31:50;9.00;;;2.80;;
69588;SDS011;56792;50.644;17.984;2023-09-19T13:34:20;5.40;;;3.40;;
69588;SDS011;56792;50.644;17.984;2023-09-19T13:36:48;5.00;;;3.00;;
69588;SDS011;56792;50.644;17.984;2023-09-19T13:39:17;6.10;;;3.00;;
69588;SDS011;56792;50.644;17.984;2023-09-19T13:41:46;4.20;;;3.00;;
69588;SDS011;56792;50.644;17.984;2023-09-19T13:44:15;6.60;;;3.00;;
69588;SDS011;56792;50.644;17.984;2023-09-19T13:46:44;5.60;;;2.90;;
69588;SDS011;56792;50.644;17.984;2023-09-19T13:49:13;4.40;;;3.10;;
69588;SDS011;56792;50.644;17.984;2023-09-19T13:51:42;4.20;;;3.10;;
69588;SDS011;56792;50.644;17.984;2023-09-19T13:54:10;5.10;;;3.00;;
69588;SDS011;56792;50.644;17.984;2023-09-19T13:56:39;4.10;;;2.80;;
69588;SDS011;56792;50.644;17.984;2023-09-19T13:59:07;6.10;;;2.90;;
69588;SDS011;56792;50.644;17.984;2023-09-19T14:01:35;5.70;;;2.90;;
69588;SDS011;56792;50.644;17.984;2023-09-19T14:04:04;4.40;;;2.50;;
69588;SDS011;56792;50.644;17.984;2023-09-19T14:06:33;5.10;;;2.70;;
69588;SDS011;56792;50.644;17.984;2023-09-19T14:09:01;4.90;;;3.10;;
69588;SDS011;56792;50.644;17.984;2023-09-19T14:11:30;4.70;;;2.60;;
69588;SDS011;56792;50.644;17.984;2023-09-19T14:13:59;4.80;;;2.60;;
69588;SDS011;56792;50.644;17.984;2023-09-19T14:16:27;4.70;;;3.00;;
69588;SDS011;56792;50.644;17.984;2023-09-19T14:18:57;6.10;;;2.90;;
69588;SDS011;56792;50.644;17.984;2023-09-19T14:21:26;31.60;;;4.10;;
69588;SDS011;56792;50.644;17.984;2023-09-19T14:23:54;4.70;;;2.60;;
69588;SDS011;56792;50.644;17.984;2023-09-19T14:26:23;4.80;;;2.40;;
69588;SDS011;56792;50.644;17.984;2023-09-19T14:28:51;4.70;;;2.70;;
69588;SDS011;56792;50.644;17.984;2023-09-19T14:31:19;5.90;;;2.40;;
69588;SDS011;56792;50.644;17.984;2023-09-19T14:33:54;3.60;;;2.30;;
69588;SDS011;56792;50.644;17.984;2023-09-19T14:36:23;3.40;;;2.20;;
69588;SDS011;56792;50.644;17.984;2023-09-19T14:38:53;3.80;;;2.60;;
69588;SDS011;56792;50.644;17.984;2023-09-19T14:41:22;4.20;;;2.40;;
69588;SDS011;56792;50.644;17.984;2023-09-19T14:43:52;4.60;;;2.70;;
69588;SDS011;56792;50.644;17.984;2023-09-19T14:46:22;4.10;;;2.60;;
69588;SDS011;56792;50.644;17.984;2023-09-19T14:48:51;4.60;;;2.60;;
69588;SDS011;56792;50.644;17.984;2023-09-19T14:51:20;5.40;;;2.70;;
69588;SDS011;56792;50.644;17.984;2023-09-19T14:53:48;4.30;;;2.60;;
69588;SDS011;56792;50.644;17.984;2023-09-19T14:56:17;5.60;;;2.10;;
69588;SDS011;56792;50.644;17.984;2023-09-19T14:58:46;5.10;;;2.40;;
69588;SDS011;56792;50.644;17.984;2023-09-19T15:01:15;4.00;;;2.90;;
69588;SDS011;56792;50.644;17.984;2023-09-19T15:03:43;4.60;;;2.50;;
69588;SDS011;56792;50.644;17.984;2023-09-19T15:06:13;4.10;;;2.60;;